Terminal Aerodrome Forecast
Issued by NWS

Home | Current Version | Previous Version | Text Only | Print | Product List | Glossary On
Versions: 1 2 3 4 5 6 7 8 9 10 11 12 13 14 15 16 17 18 19 20 21 22 23 24 25 26 27 28 29
000
FTUS41 KCTP 301731
TAFAOO
TAF
KAOO 301731Z 3018/0118 06009G15KT 5SM BR VCSH OVC007
     FM010300 08007KT 4SM BR OVC007
     FM011200 08003KT 2SM BR OVC003=

USA.gov is the U.S. government's official web portal to all federal, state and local government web resources and services.